sensor_id;sensor_type;location;lat;lon;timestamp;pressure;altitude;pressure_sealevel;temperature;humidity
20115;BME280;10218;42.874;25.320;2023-01-27T00:00:58;96538.03;;;2.32;100.00
20115;BME280;10218;42.874;25.320;2023-01-27T00:03:25;96539.31;;;2.47;100.00
20115;BME280;10218;42.874;25.320;2023-01-27T00:05:53;96529.59;;;2.48;100.00
20115;BME280;10218;42.874;25.320;2023-01-27T00:08:20;96531.81;;;2.33;100.00
20115;BME280;10218;42.874;25.320;2023-01-27T00:10:48;96538.88;;;2.23;100.00
20115;BME280;10218;42.874;25.320;2023-01-27T00:13:38;96535.97;;;2.45;100.00
20115;BME280;10218;42.874;25.320;2023-01-27T00:16:06;96535.41;;;2.42;100.00
20115;BME280;10218;42.874;25.320;2023-01-27T00:18:33;96522.56;;;1.99;100.00
20115;BME280;10218;42.874;25.320;2023-01-27T00:21:00;96534.13;;;2.17;100.00
20115;BME280;10218;42.874;25.320;2023-01-27T00:23:46;96541.81;;;2.68;100.00
20115;BME280;10218;42.874;25.320;2023-01-27T00:26:32;96552.56;;;2.07;100.00
20115;BME280;10218;42.874;25.320;2023-01-27T00:28:59;96567.44;;;2.28;100.00
20115;BME280;10218;42.874;25.320;2023-01-27T00:31:26;96572.91;;;2.05;100.00
20115;BME280;10218;42.874;25.320;2023-01-27T00:34:12;96569.00;;;2.49;100.00
20115;BME280;10218;42.874;25.320;2023-01-27T00:36:40;96560.53;;;2.75;100.00
20115;BME280;10218;42.874;25.320;2023-01-27T00:39:10;96562.22;;;3.05;100.00
20115;BME280;10218;42.874;25.320;2023-01-27T00:41:39;96557.50;;;2.79;100.00
20115;BME280;10218;42.874;25.320;2023-01-27T00:44:06;96563.47;;;2.81;100.00
20115;BME280;10218;42.874;25.320;2023-01-27T00:46:40;96561.31;;;2.08;100.00
20115;BME280;10218;42.874;25.320;2023-01-27T00:49:08;96558.69;;;2.18;100.00
20115;BME280;10218;42.874;25.320;2023-01-27T00:51:36;96549.22;;;2.15;100.00
20115;BME280;10218;42.874;25.320;2023-01-27T00:54:04;96545.41;;;2.48;100.00
20115;BME280;10218;42.874;25.320;2023-01-27T00:56:31;96536.53;;;2.68;100.00
20115;BME280;10218;42.874;25.320;2023-01-27T00:58:59;96517.06;;;2.21;100.00
20115;BME280;10218;42.874;25.320;2023-01-27T01:01:26;96511.69;;;2.23;100.00
20115;BME280;10218;42.874;25.320;2023-01-27T01:03:54;96509.63;;;1.77;100.00
20115;BME280;10218;42.874;25.320;2023-01-27T01:06:21;96510.31;;;1.79;100.00
20115;BME280;10218;42.874;25.320;2023-01-27T01:08:49;96506.53;;;2.31;100.00
20115;BME280;10218;42.874;25.320;2023-01-27T01:11:19;96508.22;;;2.89;100.00
20115;BME280;10218;42.874;25.320;2023-01-27T01:13:48;96509.87;;;2.71;100.00
20115;BME280;10218;42.874;25.320;2023-01-27T01:16:21;96509.06;;;2.32;100.00
20115;BME280;10218;42.874;25.320;2023-01-27T01:18:48;96503.34;;;2.18;100.00
20115;BME280;10218;42.874;25.320;2023-01-27T01:21:16;96500.09;;;1.95;100.00
20115;BME280;10218;42.874;25.320;2023-01-27T01:23:44;96515.69;;;2.17;100.00
20115;BME280;10218;42.874;25.320;2023-01-27T01:26:13;96518.31;;;2.07;100.00
20115;BME280;10218;42.874;25.320;2023-01-27T01:28:43;96518.47;;;2.25;100.00
20115;BME280;10218;42.874;25.320;2023-01-27T01:31:13;96509.75;;;2.53;100.00
20115;BME280;10218;42.874;25.320;2023-01-27T01:33:41;96499.91;;;2.46;100.00
20115;BME280;10218;42.874;25.320;2023-01-27T01:36:13;96502.94;;;2.41;100.00
20115;BME280;10218;42.874;25.320;2023-01-27T01:38:41;96496.94;;;2.10;100.00
20115;BME280;10218;42.874;25.320;2023-01-27T01:41:17;96498.62;;;2.50;100.00
20115;BME280;10218;42.874;25.320;2023-01-27T01:43:46;96496.28;;;2.47;100.00
20115;BME280;10218;42.874;25.320;2023-01-27T01:46:16;96495.19;;;2.59;100.00
20115;BME280;10218;42.874;25.320;2023-01-27T01:48:59;96493.50;;;2.77;100.00
20115;BME280;10218;42.874;25.320;2023-01-27T01:51:31;96495.31;;;2.67;100.00
20115;BME280;10218;42.874;25.320;2023-01-27T01:54:08;96493.94;;;2.63;100.00
20115;BME280;10218;42.874;25.320;2023-01-27T01:56:41;96501.56;;;2.56;100.00
20115;BME280;10218;42.874;25.320;2023-01-27T01:59:58;96482.81;;;2.59;100.00
20115;BME280;10218;42.874;25.320;2023-01-27T02:02:09;96492.97;;;2.64;100.00
20115;BME280;10218;42.874;25.320;2023-01-27T02:04:46;96480.47;;;2.37;100.00
20115;BME280;10218;42.874;25.320;2023-01-27T02:07:20;96463.66;;;2.29;100.00
20115;BME280;10218;42.874;25.320;2023-01-27T02:09:50;96452.31;;;2.38;100.00
20115;BME280;10218;42.874;25.320;2023-01-27T02:12:17;96454.78;;;2.49;100.00
20115;BME280;10218;42.874;25.320;2023-01-27T02:14:44;96463.50;;;1.82;100.00
20115;BME280;10218;42.874;25.320;2023-01-27T02:17:12;96469.06;;;1.98;100.00
20115;BME280;10218;42.874;25.320;2023-01-27T02:22:48;96479.31;;;1.92;100.00
20115;BME280;10218;42.874;25.320;2023-01-27T02:28:05;96482.50;;;1.95;100.00
20115;BME280;10218;42.874;25.320;2023-01-27T02:30:33;96474.22;;;1.60;100.00
20115;BME280;10218;42.874;25.320;2023-01-27T02:33:11;96457.44;;;1.11;100.00
20115;BME280;10218;42.874;25.320;2023-01-27T02:35:43;96443.00;;;2.14;100.00
20115;BME280;10218;42.874;25.320;2023-01-27T02:38:16;96436.56;;;1.69;100.00
20115;BME280;10218;42.874;25.320;2023-01-27T02:40:46;96437.31;;;2.00;100.00
20115;BME280;10218;42.874;25.320;2023-01-27T02:43:15;96431.63;;;2.62;100.00
20115;BME280;10218;42.874;25.320;2023-01-27T02:45:45;96444.25;;;2.49;100.00
20115;BME280;10218;42.874;25.320;2023-01-27T02:48:13;96448.00;;;2.27;100.00
20115;BME280;10218;42.874;25.320;2023-01-27T02:50:40;96463.13;;;1.47;100.00
20115;BME280;10218;42.874;25.320;2023-01-27T02:53:08;96465.41;;;1.80;100.00
20115;BME280;10218;42.874;25.320;2023-01-27T02:55:35;96464.09;;;1.55;100.00
20115;BME280;10218;42.874;25.320;2023-01-27T02:58:03;96448.28;;;2.05;100.00
20115;BME280;10218;42.874;25.320;2023-01-27T03:00:31;96431.91;;;2.21;100.00
20115;BME280;10218;42.874;25.320;2023-01-27T03:02:58;96450.44;;;1.71;100.00
20115;BME280;10218;42.874;25.320;2023-01-27T03:05:25;96451.50;;;1.59;100.00
20115;BME280;10218;42.874;25.320;2023-01-27T03:07:52;96448.22;;;1.66;100.00
20115;BME280;10218;42.874;25.320;2023-01-27T03:10:19;96458.91;;;1.94;100.00
20115;BME280;10218;42.874;25.320;2023-01-27T03:12:46;96458.94;;;2.03;100.00
20115;BME280;10218;42.874;25.320;2023-01-27T03:15:14;96461.44;;;1.46;100.00
20115;BME280;10218;42.874;25.320;2023-01-27T03:18:07;96464.00;;;1.66;100.00
20115;BME280;10218;42.874;25.320;2023-01-27T03:20:46;96467.66;;;1.94;100.00
20115;BME280;10218;42.874;25.320;2023-01-27T03:23:16;96461.88;;;2.29;100.00
20115;BME280;10218;42.874;25.320;2023-01-27T03:25:45;96457.84;;;2.35;100.00
20115;BME280;10218;42.874;25.320;2023-01-27T03:28:13;96458.31;;;1.61;100.00
20115;BME280;10218;42.874;25.320;2023-01-27T03:30:41;96452.62;;;1.56;100.00
20115;BME280;10218;42.874;25.320;2023-01-27T03:33:09;96446.03;;;1.91;100.00
20115;BME280;10218;42.874;25.320;2023-01-27T03:35:37;96447.44;;;2.14;100.00
20115;BME280;10218;42.874;25.320;2023-01-27T03:38:09;96442.59;;;2.57;100.00
20115;BME280;10218;42.874;25.320;2023-01-27T03:40:57;96444.13;;;2.22;100.00
20115;BME280;10218;42.874;25.320;2023-01-27T03:43:43;96418.06;;;2.38;100.00
20115;BME280;10218;42.874;25.320;2023-01-27T03:46:28;96403.34;;;2.26;100.00
20115;BME280;10218;42.874;25.320;2023-01-27T03:48:56;96428.91;;;1.47;100.00
20115;BME280;10218;42.874;25.320;2023-01-27T03:51:24;96449.94;;;2.54;100.00
20115;BME280;10218;42.874;25.320;2023-01-27T03:53:52;96437.84;;;2.61;100.00
20115;BME280;10218;42.874;25.320;2023-01-27T03:56:21;96419.69;;;2.58;100.00
20115;BME280;10218;42.874;25.320;2023-01-27T03:58:49;96435.50;;;1.81;100.00
20115;BME280;10218;42.874;25.320;2023-01-27T04:01:22;96438.09;;;1.71;100.00
20115;BME280;10218;42.874;25.320;2023-01-27T04:03:50;96439.19;;;1.69;100.00
20115;BME280;10218;42.874;25.320;2023-01-27T04:06:39;96441.19;;;2.44;100.00
20115;BME280;10218;42.874;25.320;2023-01-27T04:09:29;96456.44;;;1.83;100.00
20115;BME280;10218;42.874;25.320;2023-01-27T04:11:58;96450.91;;;2.24;100.00
20115;BME280;10218;42.874;25.320;2023-01-27T04:17:06;96427.47;;;2.31;100.00
20115;BME280;10218;42.874;25.320;2023-01-27T04:19:34;96439.41;;;1.96;100.00
20115;BME280;10218;42.874;25.320;2023-01-27T04:22:03;96450.44;;;1.71;100.00
20115;BME280;10218;42.874;25.320;2023-01-27T04:24:30;96443.44;;;2.20;100.00
20115;BME280;10218;42.874;25.320;2023-01-27T04:27:00;96441.63;;;2.10;100.00
20115;BME280;10218;42.874;25.320;2023-01-27T04:29:32;96449.09;;;2.25;100.00
20115;BME280;10218;42.874;25.320;2023-01-27T04:32:02;96434.97;;;2.06;100.00
20115;BME280;10218;42.874;25.320;2023-01-27T04:34:30;96436.75;;;2.44;100.00
20115;BME280;10218;42.874;25.320;2023-01-27T04:36:58;96450.63;;;2.56;100.00
20115;BME280;10218;42.874;25.320;2023-01-27T04:39:26;96446.06;;;2.58;100.00
20115;BME280;10218;42.874;25.320;2023-01-27T04:41:54;96444.75;;;2.81;100.00
20115;BME280;10218;42.874;25.320;2023-01-27T04:44:22;96439.94;;;2.09;100.00
20115;BME280;10218;42.874;25.320;2023-01-27T04:46:50;96443.53;;;1.99;100.00
20115;BME280;10218;42.874;25.320;2023-01-27T04:49:17;96439.69;;;2.03;100.00
20115;BME280;10218;42.874;25.320;2023-01-27T04:51:45;96445.72;;;1.75;100.00
20115;BME280;10218;42.874;25.320;2023-01-27T04:54:13;96447.72;;;2.30;100.00
20115;BME280;10218;42.874;25.320;2023-01-27T04:56:52;96446.75;;;2.22;100.00
20115;BME280;10218;42.874;25.320;2023-01-27T04:59:21;96448.56;;;2.21;100.00
20115;BME280;10218;42.874;25.320;2023-01-27T05:01:48;96442.16;;;1.85;100.00
20115;BME280;10218;42.874;25.320;2023-01-27T05:04:15;96428.84;;;2.35;100.00
20115;BME280;10218;42.874;25.320;2023-01-27T05:06:42;96421.50;;;2.09;100.00
20115;BME280;10218;42.874;25.320;2023-01-27T05:09:09;96400.03;;;2.33;100.00
20115;BME280;10218;42.874;25.320;2023-01-27T05:11:37;96411.63;;;2.69;100.00
20115;BME280;10218;42.874;25.320;2023-01-27T05:14:04;96411.94;;;2.37;100.00
20115;BME280;10218;42.874;25.320;2023-01-27T05:16:31;96405.25;;;1.56;100.00
20115;BME280;10218;42.874;25.320;2023-01-27T05:18:58;96393.75;;;1.67;100.00
20115;BME280;10218;42.874;25.320;2023-01-27T05:21:26;96406.00;;;1.97;100.00
20115;BME280;10218;42.874;25.320;2023-01-27T05:23:57;96424.44;;;2.26;100.00
20115;BME280;10218;42.874;25.320;2023-01-27T05:26:26;96415.69;;;1.96;100.00
20115;BME280;10218;42.874;25.320;2023-01-27T05:28:56;96402.53;;;2.15;100.00
20115;BME280;10218;42.874;25.320;2023-01-27T05:31:26;96404.31;;;2.05;100.00
20115;BME280;10218;42.874;25.320;2023-01-27T05:33:55;96411.69;;;2.11;100.00
20115;BME280;10218;42.874;25.320;2023-01-27T05:36:24;96418.31;;;2.15;100.00
20115;BME280;10218;42.874;25.320;2023-01-27T05:38:52;96424.97;;;2.29;100.00
20115;BME280;10218;42.874;25.320;2023-01-27T05:41:20;96420.25;;;2.04;100.00
20115;BME280;10218;42.874;25.320;2023-01-27T05:43:52;96422.72;;;1.57;100.00
20115;BME280;10218;42.874;25.320;2023-01-27T05:46:25;96438.53;;;1.67;100.00
20115;BME280;10218;42.874;25.320;2023-01-27T05:48:54;96428.84;;;2.35;100.00
20115;BME280;10218;42.874;25.320;2023-01-27T05:51:23;96422.75;;;2.44;100.00
20115;BME280;10218;42.874;25.320;2023-01-27T05:53:51;96403.31;;;2.45;100.00
20115;BME280;10218;42.874;25.320;2023-01-27T05:56:21;96423.31;;;2.38;100.00
20115;BME280;10218;42.874;25.320;2023-01-27T05:58:49;96416.09;;;2.21;100.00
20115;BME280;10218;42.874;25.320;2023-01-27T06:01:17;96437.00;;;1.74;100.00
20115;BME280;10218;42.874;25.320;2023-01-27T06:03:45;96432.19;;;2.37;100.00
20115;BME280;10218;42.874;25.320;2023-01-27T06:06:16;96442.72;;;2.56;100.00
20115;BME280;10218;42.874;25.320;2023-01-27T06:08:45;96446.06;;;2.20;100.00
20115;BME280;10218;42.874;25.320;2023-01-27T06:11:13;96443.84;;;2.25;100.00
20115;BME280;10218;42.874;25.320;2023-01-27T06:13:41;96437.84;;;2.03;100.00
20115;BME280;10218;42.874;25.320;2023-01-27T06:16:10;96453.81;;;2.50;100.00
20115;BME280;10218;42.874;25.320;2023-01-27T06:18:38;96454.94;;;2.47;100.00
20115;BME280;10218;42.874;25.320;2023-01-27T06:21:08;96450.38;;;2.59;100.00
20115;BME280;10218;42.874;25.320;2023-01-27T06:23:35;96451.06;;;2.42;100.00
20115;BME280;10218;42.874;25.320;2023-01-27T06:26:06;96448.16;;;2.35;100.00
20115;BME280;10218;42.874;25.320;2023-01-27T06:28:36;96450.38;;;2.59;100.00
20115;BME280;10218;42.874;25.320;2023-01-27T06:31:12;96442.56;;;2.67;100.00
20115;BME280;10218;42.874;25.320;2023-01-27T06:33:40;96450.44;;;2.86;100.00
20115;BME280;10218;42.874;25.320;2023-01-27T06:36:11;96437.69;;;2.82;100.00
20115;BME280;10218;42.874;25.320;2023-01-27T06:38:38;96443.16;;;2.42;100.00
20115;BME280;10218;42.874;25.320;2023-01-27T06:41:05;96454.53;;;2.23;100.00
20115;BME280;10218;42.874;25.320;2023-01-27T06:43:34;96468.47;;;1.76;100.00
20115;BME280;10218;42.874;25.320;2023-01-27T06:46:01;96477.69;;;2.39;100.00
20115;BME280;10218;42.874;25.320;2023-01-27T06:48:31;96482.81;;;2.50;100.00
20115;BME280;10218;42.874;25.320;2023-01-27T06:50:58;96490.72;;;2.21;100.00
20115;BME280;10218;42.874;25.320;2023-01-27T06:53:25;96478.53;;;2.39;100.00
20115;BME280;10218;42.874;25.320;2023-01-27T06:55:56;96480.47;;;2.28;100.00
20115;BME280;10218;42.874;25.320;2023-01-27T06:58:24;96478.63;;;2.09;100.00
20115;BME280;10218;42.874;25.320;2023-01-27T07:00:52;96481.56;;;2.73;100.00
20115;BME280;10218;42.874;25.320;2023-01-27T07:03:19;96462.94;;;2.94;100.00
20115;BME280;10218;42.874;25.320;2023-01-27T07:05:46;96468.75;;;2.97;100.00
20115;BME280;10218;42.874;25.320;2023-01-27T07:08:14;96471.03;;;2.35;100.00
20115;BME280;10218;42.874;25.320;2023-01-27T07:10:41;96478.25;;;2.52;100.00
20115;BME280;10218;42.874;25.320;2023-01-27T07:13:12;96457.97;;;2.24;100.00
20115;BME280;10218;42.874;25.320;2023-01-27T07:15:40;96479.91;;;2.82;100.00
20115;BME280;10218;42.874;25.320;2023-01-27T07:18:11;96489.34;;;2.84;100.00
20115;BME280;10218;42.874;25.320;2023-01-27T07:20:40;96488.22;;;2.77;100.00
20115;BME280;10218;42.874;25.320;2023-01-27T07:23:08;96485.06;;;2.64;100.00
20115;BME280;10218;42.874;25.320;2023-01-27T07:25:36;96501.84;;;2.73;100.00
20115;BME280;10218;42.874;25.320;2023-01-27T07:28:04;96492.94;;;2.54;100.00
20115;BME280;10218;42.874;25.320;2023-01-27T07:30:32;96480.44;;;2.85;100.00
20115;BME280;10218;42.874;25.320;2023-01-27T07:33:07;96492.38;;;2.89;100.00
20115;BME280;10218;42.874;25.320;2023-01-27T07:35:36;96502.81;;;2.52;100.00
20115;BME280;10218;42.874;25.320;2023-01-27T07:38:04;96482.84;;;2.69;100.00
20115;BME280;10218;42.874;25.320;2023-01-27T07:40:32;96496.56;;;2.63;100.00
20115;BME280;10218;42.874;25.320;2023-01-27T07:43:01;96498.62;;;2.88;100.00
20115;BME280;10218;42.874;25.320;2023-01-27T07:45:29;96497.97;;;2.67;100.00
20115;BME280;10218;42.874;25.320;2023-01-27T07:48:14;96449.03;;;3.01;100.00
20115;BME280;10218;42.874;25.320;2023-01-27T07:50:42;96483.22;;;3.40;100.00
20115;BME280;10218;42.874;25.320;2023-01-27T07:53:10;96473.63;;;2.92;100.00
20115;BME280;10218;42.874;25.320;2023-01-27T07:55:37;96467.97;;;2.78;100.00
20115;BME280;10218;42.874;25.320;2023-01-27T07:58:05;96468.88;;;3.06;100.00
20115;BME280;10218;42.874;25.320;2023-01-27T08:00:33;96462.66;;;2.87;100.00
20115;BME280;10218;42.874;25.320;2023-01-27T08:03:01;96460.62;;;3.82;100.00
20115;BME280;10218;42.874;25.320;2023-01-27T08:05:31;96462.63;;;3.07;100.00
20115;BME280;10218;42.874;25.320;2023-01-27T08:08:00;96462.09;;;2.93;100.00
20115;BME280;10218;42.874;25.320;2023-01-27T08:10:30;96462.75;;;3.15;100.00
20115;BME280;10218;42.874;25.320;2023-01-27T08:12:57;96457.53;;;3.32;100.00
20115;BME280;10218;42.874;25.320;2023-01-27T08:15:25;96456.44;;;3.35;100.00
20115;BME280;10218;42.874;25.320;2023-01-27T08:17:55;96445.22;;;3.51;100.00
20115;BME280;10218;42.874;25.320;2023-01-27T08:20:24;96444.78;;;3.28;100.00
20115;BME280;10218;42.874;25.320;2023-01-27T08:22:52;96439.75;;;3.89;100.00
20115;BME280;10218;42.874;25.320;2023-01-27T08:25:19;96451.63;;;4.03;100.00
20115;BME280;10218;42.874;25.320;2023-01-27T08:27:54;96438.84;;;3.98;100.00
20115;BME280;10218;42.874;25.320;2023-01-27T08:30:21;96440.13;;;3.94;100.00
20115;BME280;10218;42.874;25.320;2023-01-27T08:32:49;96440.41;;;3.73;100.00
20115;BME280;10218;42.874;25.320;2023-01-27T08:35:16;96442.53;;;3.87;100.00
20115;BME280;10218;42.874;25.320;2023-01-27T08:37:47;96440.41;;;3.09;100.00
20115;BME280;10218;42.874;25.320;2023-01-27T08:40:15;96440.38;;;3.19;100.00
20115;BME280;10218;42.874;25.320;2023-01-27T08:42:42;96433.94;;;3.85;100.00
20115;BME280;10218;42.874;25.320;2023-01-27T08:45:09;96438.66;;;3.27;100.00
20115;BME280;10218;42.874;25.320;2023-01-27T08:47:36;96442.91;;;3.75;100.00
20115;BME280;10218;42.874;25.320;2023-01-27T08:50:04;96444.91;;;3.63;100.00
20115;BME280;10218;42.874;25.320;2023-01-27T08:52:31;96443.88;;;3.92;100.00
20115;BME280;10218;42.874;25.320;2023-01-27T08:54:58;96436.47;;;3.77;100.00
20115;BME280;10218;42.874;25.320;2023-01-27T08:57:26;96427.75;;;3.95;100.00
20115;BME280;10218;42.874;25.320;2023-01-27T08:59:53;96437.56;;;3.84;100.00
20115;BME280;10218;42.874;25.320;2023-01-27T09:02:21;96427.25;;;3.81;100.00
20115;BME280;10218;42.874;25.320;2023-01-27T09:04:50;96441.37;;;3.45;100.00
20115;BME280;10218;42.874;25.320;2023-01-27T09:07:17;96435.97;;;3.92;100.00
20115;BME280;10218;42.874;25.320;2023-01-27T09:09:46;96425.66;;;4.16;100.00
20115;BME280;10218;42.874;25.320;2023-01-27T09:12:13;96411.91;;;4.30;100.00
20115;BME280;10218;42.874;25.320;2023-01-27T09:14:41;96422.91;;;3.35;100.00
20115;BME280;10218;42.874;25.320;2023-01-27T09:17:08;96425.06;;;3.77;100.00
20115;BME280;10218;42.874;25.320;2023-01-27T09:19:35;96422.56;;;3.21;100.00
20115;BME280;10218;42.874;25.320;2023-01-27T09:22:02;96416.28;;;3.59;100.00
20115;BME280;10218;42.874;25.320;2023-01-27T09:24:31;96404.25;;;3.19;100.00
20115;BME280;10218;42.874;25.320;2023-01-27T09:26:58;96413.84;;;3.75;100.00
20115;BME280;10218;42.874;25.320;2023-01-27T09:29:27;96416.59;;;4.18;100.00
20115;BME280;10218;42.874;25.320;2023-01-27T09:31:55;96420.50;;;3.97;100.00
20115;BME280;10218;42.874;25.320;2023-01-27T09:34:22;96414.94;;;3.72;100.00
20115;BME280;10218;42.874;25.320;2023-01-27T09:36:53;96414.88;;;3.64;100.00
20115;BME280;10218;42.874;25.320;2023-01-27T09:39:23;96423.38;;;3.85;100.00
20115;BME280;10218;42.874;25.320;2023-01-27T09:41:57;96413.50;;;3.60;100.00
20115;BME280;10218;42.874;25.320;2023-01-27T09:44:45;96414.75;;;3.83;100.00
20115;BME280;10218;42.874;25.320;2023-01-27T10:26:00;96381.31;;;4.45;100.00
20115;BME280;10218;42.874;25.320;2023-01-27T10:28:30;96378.94;;;4.42;100.00
20115;BME280;10218;42.874;25.320;2023-01-27T10:31:02;96374.69;;;4.67;100.00
20115;BME280;10218;42.874;25.320;2023-01-27T10:36:29;96373.56;;;3.91;100.00
20115;BME280;10218;42.874;25.320;2023-01-27T10:39:23;96365.44;;;4.45;100.00
20115;BME280;10218;42.874;25.320;2023-01-27T10:42:19;96346.69;;;4.82;100.00
20115;BME280;10218;42.874;25.320;2023-01-27T10:45:02;96353.03;;;4.46;100.00
20115;BME280;10218;42.874;25.320;2023-01-27T10:50:27;96353.34;;;4.68;100.00
20115;BME280;10218;42.874;25.320;2023-01-27T10:53:07;96339.66;;;4.21;100.00
20115;BME280;10218;42.874;25.320;2023-01-27T11:01:16;96341.91;;;3.63;100.00
20115;BME280;10218;42.874;25.320;2023-01-27T11:04:02;96332.09;;;4.26;100.00
20115;BME280;10218;42.874;25.320;2023-01-27T11:06:36;96332.53;;;4.04;100.00
20115;BME280;10218;42.874;25.320;2023-01-27T11:11:48;96324.47;;;4.06;100.00
20115;BME280;10218;42.874;25.320;2023-01-27T11:14:25;96315.62;;;4.15;100.00
20115;BME280;10218;42.874;25.320;2023-01-27T11:17:21;96323.69;;;4.13;100.00
20115;BME280;10218;42.874;25.320;2023-01-27T11:22:25;96309.75;;;4.03;100.00
20115;BME280;10218;42.874;25.320;2023-01-27T11:29:58;96311.66;;;3.75;100.00
20115;BME280;10218;42.874;25.320;2023-01-27T11:32:38;96303.50;;;4.30;100.00
20115;BME280;10218;42.874;25.320;2023-01-27T11:35:10;96302.34;;;4.50;100.00
20115;BME280;10218;42.874;25.320;2023-01-27T11:37:47;96311.56;;;3.85;100.00
20115;BME280;10218;42.874;25.320;2023-01-27T11:40:28;96315.03;;;3.50;100.00
20115;BME280;10218;42.874;25.320;2023-01-27T11:42:58;96313.38;;;3.84;100.00
20115;BME280;10218;42.874;25.320;2023-01-27T11:45:27;96308.56;;;4.41;100.00
20115;BME280;10218;42.874;25.320;2023-01-27T11:47:58;96305.84;;;4.85;100.00
20115;BME280;10218;42.874;25.320;2023-01-27T11:50:29;96311.91;;;4.08;100.00
20115;BME280;10218;42.874;25.320;2023-01-27T11:53:13;96319.47;;;3.67;100.00
20115;BME280;10218;42.874;25.320;2023-01-27T11:55:53;96315.06;;;3.85;100.00
20115;BME280;10218;42.874;25.320;2023-01-27T11:58:24;96312.09;;;3.53;100.00
20115;BME280;10218;42.874;25.320;2023-01-27T12:00:58;96315.78;;;3.78;100.00
20115;BME280;10218;42.874;25.320;2023-01-27T12:03:54;96308.03;;;3.94;100.00
20115;BME280;10218;42.874;25.320;2023-01-27T12:06:40;96312.78;;;3.91;
20115;BME280;10218;42.874;25.320;2023-01-27T12:09:32;96305.50;;;3.93;100.00
20115;BME280;10218;42.874;25.320;2023-01-27T12:12:18;96317.59;;;4.56;100.00
20115;BME280;10218;42.874;25.320;2023-01-27T12:22:56;96315.75;;;4.31;100.00
20115;BME280;10218;42.874;25.320;2023-01-27T12:25:49;96321.28;;;4.20;100.00
20115;BME280;10218;42.874;25.320;2023-01-27T12:28:25;96332.47;;;3.78;100.00
20115;BME280;10218;42.874;25.320;2023-01-27T12:31:03;96323.56;;;4.15;100.00
20115;BME280;10218;42.874;25.320;2023-01-27T12:33:33;96315.78;;;4.57;100.00
20115;BME280;10218;42.874;25.320;2023-01-27T12:36:19;96321.59;;;4.43;100.00
20115;BME280;10218;42.874;25.320;2023-01-27T12:38:52;96320.72;;;3.91;100.00
20115;BME280;10218;42.874;25.320;2023-01-27T12:41:27;96332.47;;;4.14;100.00
20115;BME280;10218;42.874;25.320;2023-01-27T12:43:57;96330.94;;;4.29;100.00
20115;BME280;10218;42.874;25.320;2023-01-27T12:46:30;96332.00;;;4.36;100.00
20115;BME280;10218;42.874;25.320;2023-01-27T12:49:11;96324.50;;;4.57;100.00
20115;BME280;10218;42.874;25.320;2023-01-27T12:51:50;96327.97;;;4.32;100.00
20115;BME280;10218;42.874;25.320;2023-01-27T12:56:53;96327.13;;;4.49;100.00
20115;BME280;10218;42.874;25.320;2023-01-27T12:59:23;96328.16;;;4.56;100.00
20115;BME280;10218;42.874;25.320;2023-01-27T13:05:07;96322.81;;;4.48;100.00
20115;BME280;10218;42.874;25.320;2023-01-27T13:07:42;96330.00;;;4.38;100.00
20115;BME280;10218;42.874;25.320;2023-01-27T13:15:21;96331.53;;;4.23;100.00
20115;BME280;10218;42.874;25.320;2023-01-27T13:20:42;96321.16;;;3.68;100.00
20115;BME280;10218;42.874;25.320;2023-01-27T13:23:21;96332.72;;;4.46;100.00
20115;BME280;10218;42.874;25.320;2023-01-27T13:35:09;96352.28;;;3.47;100.00
20115;BME280;10218;42.874;25.320;2023-01-27T13:42:52;96340.53;;;3.59;100.00
20115;BME280;10218;42.874;25.320;2023-01-27T13:45:24;96343.03;;;3.78;100.00
20115;BME280;10218;42.874;25.320;2023-01-27T13:47:57;96345.25;;;3.38;100.00
20115;BME280;10218;42.874;25.320;2023-01-27T13:53:19;96354.38;;;3.88;100.00
20115;BME280;10218;42.874;25.320;2023-01-27T14:02:06;96349.09;;;3.88;100.00
20115;BME280;10218;42.874;25.320;2023-01-27T14:13:10;96359.56;;;3.63;100.00
20115;BME280;10218;42.874;25.320;2023-01-27T14:15:54;96362.75;;;3.39;100.00
20115;BME280;10218;42.874;25.320;2023-01-27T14:18:42;96368.69;;;3.68;100.00
20115;BME280;10218;42.874;25.320;2023-01-27T14:26:50;96384.81;;;3.11;100.00
20115;BME280;10218;42.874;25.320;2023-01-27T14:29:40;96377.81;;;3.29;100.00
20115;BME280;10218;42.874;25.320;2023-01-27T14:32:42;96381.03;;;3.50;100.00
20115;BME280;10218;42.874;25.320;2023-01-27T14:35:30;96379.50;;;3.20;100.00
20115;BME280;10218;42.874;25.320;2023-01-27T14:38:15;96386.66;;;3.37;100.00
20115;BME280;10218;42.874;25.320;2023-01-27T14:41:44;96387.28;;;3.22;100.00
20115;BME280;10218;42.874;25.320;2023-01-27T14:48:01;96385.19;;;3.25;100.00
20115;BME280;10218;42.874;25.320;2023-01-27T14:50:22;96388.41;;;2.82;100.00
20115;BME280;10218;42.874;25.320;2023-01-27T14:58:59;96382.94;;;3.03;100.00
20115;BME280;10218;42.874;25.320;2023-01-27T15:01:43;96391.34;;;3.16;100.00
20115;BME280;10218;42.874;25.320;2023-01-27T15:07:20;96389.47;;;2.99;100.00
20115;BME280;10218;42.874;25.320;2023-01-27T15:26:35;96398.84;;;3.11;100.00
20115;BME280;10218;42.874;25.320;2023-01-27T15:29:03;96395.63;;;2.80;100.00
20115;BME280;10218;42.874;25.320;2023-01-27T15:31:31;96409.50;;;3.29;100.00
20115;BME280;10218;42.874;25.320;2023-01-27T15:36:32;96410.13;;;3.13;100.00
20115;BME280;10218;42.874;25.320;2023-01-27T15:41:52;96408.12;;;3.15;100.00
20115;BME280;10218;42.874;25.320;2023-01-27T15:46:51;96404.22;;;3.29;100.00
20115;BME280;10218;42.874;25.320;2023-01-27T15:49:27;96406.94;;;3.37;100.00
20115;BME280;10218;42.874;25.320;2023-01-27T15:52:23;96402.97;;;3.51;100.00
20115;BME280;10218;42.874;25.320;2023-01-27T15:54:52;96404.66;;;3.24;100.00
20115;BME280;10218;42.874;25.320;2023-01-27T15:57:36;96402.69;;;3.26;100.00
20115;BME280;10218;42.874;25.320;2023-01-27T16:00:23;96403.09;;;2.94;100.00